sensor_id;sensor_type;location;lat;lon;timestamp;noise_LAeq;noise_LA_min;noise_LA_max;noise_LA01;noise_LA95
71030;Laerm;63723;51.436;5.976;2023-12-07T00:00:04;50.31;49.18;51.94;;
71030;Laerm;63723;51.436;5.976;2023-12-07T00:00:14;50.41;49.23;52.26;;
71030;Laerm;63723;51.436;5.976;2023-12-07T00:00:24;50.34;49.03;52.42;;
71030;Laerm;63723;51.436;5.976;2023-12-07T00:00:35;50.29;49.42;51.66;;
71030;Laerm;63723;51.436;5.976;2023-12-07T00:00:45;50.29;49.15;51.23;;
71030;Laerm;63723;51.436;5.976;2023-12-07T00:00:55;50.30;48.96;52.08;;
71030;Laerm;63723;51.436;5.976;2023-12-07T00:01:06;50.38;49.35;51.62;;
71030;Laerm;63723;51.436;5.976;2023-12-07T00:01:16;50.34;49.36;51.53;;
71030;Laerm;63723;51.436;5.976;2023-12-07T00:01:26;50.36;49.21;51.43;;
71030;Laerm;63723;51.436;5.976;2023-12-07T00:01:36;50.52;49.14;62.40;;
71030;Laerm;63723;51.436;5.976;2023-12-07T00:01:47;50.39;49.25;52.75;;
71030;Laerm;63723;51.436;5.976;2023-12-07T00:01:57;50.34;49.24;51.93;;
71030;Laerm;63723;51.436;5.976;2023-12-07T00:02:07;50.34;49.28;51.21;;
71030;Laerm;63723;51.436;5.976;2023-12-07T00:02:18;50.23;49.07;51.54;;
71030;Laerm;63723;51.436;5.976;2023-12-07T00:02:28;50.25;49.11;52.45;;
71030;Laerm;63723;51.436;5.976;2023-12-07T00:02:38;50.25;49.18;52.27;;
71030;Laerm;63723;51.436;5.976;2023-12-07T00:02:48;50.23;49.17;51.78;;
71030;Laerm;63723;51.436;5.976;2023-12-07T00:02:59;50.25;48.99;52.75;;
71030;Laerm;63723;51.436;5.976;2023-12-07T00:03:09;50.18;49.06;51.65;;
71030;Laerm;63723;51.436;5.976;2023-12-07T00:03:20;50.14;48.82;51.43;;
71030;Laerm;63723;51.436;5.976;2023-12-07T00:03:30;50.19;49.09;51.90;;
71030;Laerm;63723;51.436;5.976;2023-12-07T00:03:40;50.14;48.92;51.79;;
71030;Laerm;63723;51.436;5.976;2023-12-07T00:03:50;50.19;49.03;51.88;;
71030;Laerm;63723;51.436;5.976;2023-12-07T00:04:01;50.21;48.81;52.04;;
71030;Laerm;63723;51.436;5.976;2023-12-07T00:04:11;50.17;49.30;52.07;;
71030;Laerm;63723;51.436;5.976;2023-12-07T00:04:21;50.26;49.14;53.17;;
71030;Laerm;63723;51.436;5.976;2023-12-07T00:04:32;50.17;49.02;52.01;;
71030;Laerm;63723;51.436;5.976;2023-12-07T00:04:42;50.25;49.18;52.06;;
71030;Laerm;63723;51.436;5.976;2023-12-07T00:04:53;50.21;49.24;51.37;;
71030;Laerm;63723;51.436;5.976;2023-12-07T00:05:03;50.23;48.94;51.43;;
71030;Laerm;63723;51.436;5.976;2023-12-07T00:05:13;50.20;49.26;51.44;;
71030;Laerm;63723;51.436;5.976;2023-12-07T00:05:24;50.37;48.86;61.57;;
71030;Laerm;63723;51.436;5.976;2023-12-07T00:05:34;50.21;49.00;52.06;;
71030;Laerm;63723;51.436;5.976;2023-12-07T00:05:44;50.47;49.02;60.84;;
71030;Laerm;63723;51.436;5.976;2023-12-07T00:05:54;50.24;48.90;52.83;;
71030;Laerm;63723;51.436;5.976;2023-12-07T00:06:04;50.18;49.05;51.76;;
71030;Laerm;63723;51.436;5.976;2023-12-07T00:06:15;50.17;48.54;52.12;;
71030;Laerm;63723;51.436;5.976;2023-12-07T00:06:25;50.19;49.06;51.93;;
71030;Laerm;63723;51.436;5.976;2023-12-07T00:06:35;50.56;49.13;57.82;;
71030;Laerm;63723;51.436;5.976;2023-12-07T00:06:45;50.68;49.48;56.70;;
71030;Laerm;63723;51.436;5.976;2023-12-07T00:06:56;50.55;49.23;51.62;;
71030;Laerm;63723;51.436;5.976;2023-12-07T00:07:06;50.73;49.60;52.67;;
71030;Laerm;63723;51.436;5.976;2023-12-07T00:07:16;50.73;49.45;59.58;;
71030;Laerm;63723;51.436;5.976;2023-12-07T00:07:26;50.64;49.54;52.55;;
71030;Laerm;63723;51.436;5.976;2023-12-07T00:07:37;50.60;49.61;56.97;;
71030;Laerm;63723;51.436;5.976;2023-12-07T00:07:47;50.54;48.90;56.82;;
71030;Laerm;63723;51.436;5.976;2023-12-07T00:07:57;50.29;49.12;52.45;;
71030;Laerm;63723;51.436;5.976;2023-12-07T00:08:10;50.18;49.04;51.86;;
71030;Laerm;63723;51.436;5.976;2023-12-07T00:08:21;50.19;48.85;52.77;;
71030;Laerm;63723;51.436;5.976;2023-12-07T00:08:31;50.20;49.18;51.93;;
71030;Laerm;63723;51.436;5.976;2023-12-07T00:08:41;50.12;48.58;51.57;;
71030;Laerm;63723;51.436;5.976;2023-12-07T00:08:52;50.11;48.91;51.45;;
71030;Laerm;63723;51.436;5.976;2023-12-07T00:09:02;50.13;48.96;51.66;;
71030;Laerm;63723;51.436;5.976;2023-12-07T00:09:12;50.21;49.10;51.99;;
71030;Laerm;63723;51.436;5.976;2023-12-07T00:09:22;50.14;48.76;52.33;;
71030;Laerm;63723;51.436;5.976;2023-12-07T00:09:33;50.12;48.75;51.76;;
71030;Laerm;63723;51.436;5.976;2023-12-07T00:09:43;50.15;49.05;52.79;;
71030;Laerm;63723;51.436;5.976;2023-12-07T00:09:53;50.17;49.04;52.22;;
71030;Laerm;63723;51.436;5.976;2023-12-07T00:10:04;50.09;48.91;51.12;;
71030;Laerm;63723;51.436;5.976;2023-12-07T00:10:15;50.13;48.81;51.89;;
71030;Laerm;63723;51.436;5.976;2023-12-07T00:10:25;50.13;48.94;52.37;;
71030;Laerm;63723;51.436;5.976;2023-12-07T00:10:36;50.10;48.86;51.46;;
71030;Laerm;63723;51.436;5.976;2023-12-07T00:10:46;50.08;49.11;51.44;;
71030;Laerm;63723;51.436;5.976;2023-12-07T00:10:56;50.07;48.74;51.25;;
71030;Laerm;63723;51.436;5.976;2023-12-07T00:11:06;50.19;49.10;52.04;;
71030;Laerm;63723;51.436;5.976;2023-12-07T00:11:16;50.11;48.94;51.17;;
71030;Laerm;63723;51.436;5.976;2023-12-07T00:11:27;50.06;48.87;51.25;;
71030;Laerm;63723;51.436;5.976;2023-12-07T00:11:37;50.08;48.85;51.07;;
71030;Laerm;63723;51.436;5.976;2023-12-07T00:11:47;50.11;48.88;51.40;;
71030;Laerm;63723;51.436;5.976;2023-12-07T00:11:57;50.10;48.86;51.30;;
71030;Laerm;63723;51.436;5.976;2023-12-07T00:12:08;50.15;49.04;52.11;;
71030;Laerm;63723;51.436;5.976;2023-12-07T00:12:18;50.07;48.74;51.98;;
71030;Laerm;63723;51.436;5.976;2023-12-07T00:12:28;50.45;49.27;52.38;;
71030;Laerm;63723;51.436;5.976;2023-12-07T00:12:38;50.40;49.31;51.47;;
71030;Laerm;63723;51.436;5.976;2023-12-07T00:12:49;50.39;49.09;51.63;;
71030;Laerm;63723;51.436;5.976;2023-12-07T00:12:59;50.42;49.44;51.52;;
71030;Laerm;63723;51.436;5.976;2023-12-07T00:13:09;50.45;49.27;52.71;;
71030;Laerm;63723;51.436;5.976;2023-12-07T00:13:19;50.48;49.29;51.98;;
71030;Laerm;63723;51.436;5.976;2023-12-07T00:13:29;50.33;48.98;51.75;;
71030;Laerm;63723;51.436;5.976;2023-12-07T00:13:40;50.44;48.92;51.36;;
71030;Laerm;63723;51.436;5.976;2023-12-07T00:13:50;50.88;49.77;52.00;;
71030;Laerm;63723;51.436;5.976;2023-12-07T00:14:00;50.93;49.80;55.78;;
71030;Laerm;63723;51.436;5.976;2023-12-07T00:14:10;50.94;49.85;56.97;;
71030;Laerm;63723;51.436;5.976;2023-12-07T00:14:21;51.02;49.92;56.81;;
71030;Laerm;63723;51.436;5.976;2023-12-07T00:14:31;50.73;49.23;52.22;;
71030;Laerm;63723;51.436;5.976;2023-12-07T00:14:41;50.43;49.23;51.79;;
71030;Laerm;63723;51.436;5.976;2023-12-07T00:14:52;50.42;49.06;51.72;;
71030;Laerm;63723;51.436;5.976;2023-12-07T00:15:02;50.36;49.34;51.49;;
71030;Laerm;63723;51.436;5.976;2023-12-07T00:15:12;50.29;49.10;51.62;;
71030;Laerm;63723;51.436;5.976;2023-12-07T00:15:23;50.30;49.09;51.29;;
71030;Laerm;63723;51.436;5.976;2023-12-07T00:15:33;50.31;49.20;51.78;;
71030;Laerm;63723;51.436;5.976;2023-12-07T00:15:44;50.26;49.31;51.67;;
71030;Laerm;63723;51.436;5.976;2023-12-07T00:15:54;50.20;48.78;51.08;;
71030;Laerm;63723;51.436;5.976;2023-12-07T00:16:04;50.21;48.99;52.01;;
71030;Laerm;63723;51.436;5.976;2023-12-07T00:16:14;50.19;48.86;51.33;;
71030;Laerm;63723;51.436;5.976;2023-12-07T00:16:25;50.27;49.23;52.15;;
71030;Laerm;63723;51.436;5.976;2023-12-07T00:16:35;50.27;49.16;51.68;;
71030;Laerm;63723;51.436;5.976;2023-12-07T00:16:45;50.22;48.90;51.46;;
71030;Laerm;63723;51.436;5.976;2023-12-07T00:16:55;50.27;49.21;51.81;;
71030;Laerm;63723;51.436;5.976;2023-12-07T00:17:06;50.21;49.05;51.18;;
71030;Laerm;63723;51.436;5.976;2023-12-07T00:17:16;50.20;49.15;51.73;;
71030;Laerm;63723;51.436;5.976;2023-12-07T00:17:26;50.25;49.29;52.03;;
71030;Laerm;63723;51.436;5.976;2023-12-07T00:17:36;50.38;48.93;60.44;;
71030;Laerm;63723;51.436;5.976;2023-12-07T00:17:47;50.21;48.74;51.31;;
71030;Laerm;63723;51.436;5.976;2023-12-07T00:17:58;50.20;49.07;51.25;;
71030;Laerm;63723;51.436;5.976;2023-12-07T00:18:10;50.18;48.90;51.57;;
71030;Laerm;63723;51.436;5.976;2023-12-07T00:18:20;50.37;48.95;52.34;;
71030;Laerm;63723;51.436;5.976;2023-12-07T00:18:30;50.72;49.69;52.35;;
71030;Laerm;63723;51.436;5.976;2023-12-07T00:18:41;50.75;49.49;51.96;;
71030;Laerm;63723;51.436;5.976;2023-12-07T00:18:51;50.80;49.31;57.61;;
71030;Laerm;63723;51.436;5.976;2023-12-07T00:19:01;50.68;49.64;52.47;;
71030;Laerm;63723;51.436;5.976;2023-12-07T00:19:11;50.23;49.32;51.78;;
71030;Laerm;63723;51.436;5.976;2023-12-07T00:19:22;50.28;49.12;52.03;;
71030;Laerm;63723;51.436;5.976;2023-12-07T00:19:32;50.18;49.13;51.52;;
71030;Laerm;63723;51.436;5.976;2023-12-07T00:19:42;50.06;48.86;51.22;;
71030;Laerm;63723;51.436;5.976;2023-12-07T00:19:53;50.13;48.95;51.33;;
71030;Laerm;63723;51.436;5.976;2023-12-07T00:20:04;50.21;48.97;57.06;;
71030;Laerm;63723;51.436;5.976;2023-12-07T00:20:14;50.05;48.88;51.14;;
71030;Laerm;63723;51.436;5.976;2023-12-07T00:20:25;49.98;48.76;51.58;;
71030;Laerm;63723;51.436;5.976;2023-12-07T00:20:35;49.97;48.61;51.59;;
71030;Laerm;63723;51.436;5.976;2023-12-07T00:20:46;49.92;48.74;51.50;;
71030;Laerm;63723;51.436;5.976;2023-12-07T00:20:56;50.04;49.06;51.85;;
71030;Laerm;63723;51.436;5.976;2023-12-07T00:21:09;49.95;48.65;52.17;;
71030;Laerm;63723;51.436;5.976;2023-12-07T00:21:20;49.90;48.75;51.76;;
71030;Laerm;63723;51.436;5.976;2023-12-07T00:21:30;49.91;48.66;51.08;;
71030;Laerm;63723;51.436;5.976;2023-12-07T00:21:40;49.92;48.94;51.40;;
71030;Laerm;63723;51.436;5.976;2023-12-07T00:21:51;49.99;48.80;51.95;;
71030;Laerm;63723;51.436;5.976;2023-12-07T00:22:01;50.04;48.85;51.31;;
71030;Laerm;63723;51.436;5.976;2023-12-07T00:22:12;50.04;48.85;51.95;;
71030;Laerm;63723;51.436;5.976;2023-12-07T00:22:22;50.04;48.72;51.42;;
71030;Laerm;63723;51.436;5.976;2023-12-07T00:22:34;49.98;48.89;51.74;;
71030;Laerm;63723;51.436;5.976;2023-12-07T00:22:44;49.93;48.65;51.34;;
71030;Laerm;63723;51.436;5.976;2023-12-07T00:22:55;50.41;49.15;52.01;;
71030;Laerm;63723;51.436;5.976;2023-12-07T00:23:05;50.62;49.22;51.89;;
71030;Laerm;63723;51.436;5.976;2023-12-07T00:23:15;50.49;49.42;52.40;;
71030;Laerm;63723;51.436;5.976;2023-12-07T00:23:26;50.16;48.81;52.58;;
71030;Laerm;63723;51.436;5.976;2023-12-07T00:23:36;49.93;48.81;51.63;;
71030;Laerm;63723;51.436;5.976;2023-12-07T00:23:47;50.02;48.72;52.68;;
71030;Laerm;63723;51.436;5.976;2023-12-07T00:23:57;49.89;48.90;50.85;;
71030;Laerm;63723;51.436;5.976;2023-12-07T00:24:08;49.95;48.52;51.84;;
71030;Laerm;63723;51.436;5.976;2023-12-07T00:24:18;49.91;48.48;51.86;;
71030;Laerm;63723;51.436;5.976;2023-12-07T00:24:28;49.89;48.73;51.16;;
71030;Laerm;63723;51.436;5.976;2023-12-07T00:24:39;49.92;48.66;51.91;;
71030;Laerm;63723;51.436;5.976;2023-12-07T00:24:50;49.90;48.82;50.94;;
71030;Laerm;63723;51.436;5.976;2023-12-07T00:25:00;49.93;48.92;50.91;;
71030;Laerm;63723;51.436;5.976;2023-12-07T00:25:10;50.18;48.87;52.70;;
71030;Laerm;63723;51.436;5.976;2023-12-07T00:25:21;49.93;48.82;51.60;;
71030;Laerm;63723;51.436;5.976;2023-12-07T00:25:31;50.10;49.00;51.77;;
71030;Laerm;63723;51.436;5.976;2023-12-07T00:25:42;50.03;49.16;51.50;;
71030;Laerm;63723;51.436;5.976;2023-12-07T00:25:52;50.10;48.78;51.79;;
71030;Laerm;63723;51.436;5.976;2023-12-07T00:26:03;49.93;48.80;51.28;;
71030;Laerm;63723;51.436;5.976;2023-12-07T00:26:13;49.87;48.75;51.02;;
71030;Laerm;63723;51.436;5.976;2023-12-07T00:26:24;49.97;48.94;52.02;;
71030;Laerm;63723;51.436;5.976;2023-12-07T00:26:34;49.86;48.49;52.03;;
71030;Laerm;63723;51.436;5.976;2023-12-07T00:26:44;50.06;48.92;52.44;;
71030;Laerm;63723;51.436;5.976;2023-12-07T00:26:54;50.01;48.86;51.37;;
71030;Laerm;63723;51.436;5.976;2023-12-07T00:27:06;50.04;48.99;51.96;;
71030;Laerm;63723;51.436;5.976;2023-12-07T00:27:16;49.97;48.94;51.24;;
71030;Laerm;63723;51.436;5.976;2023-12-07T00:27:26;50.05;49.00;51.87;;
71030;Laerm;63723;51.436;5.976;2023-12-07T00:27:36;50.09;48.47;52.06;;
71030;Laerm;63723;51.436;5.976;2023-12-07T00:27:47;50.03;48.66;52.56;;
71030;Laerm;63723;51.436;5.976;2023-12-07T00:27:57;50.60;49.58;55.18;;
71030;Laerm;63723;51.436;5.976;2023-12-07T00:28:07;50.58;49.44;52.27;;
71030;Laerm;63723;51.436;5.976;2023-12-07T00:28:18;50.60;49.39;52.45;;
71030;Laerm;63723;51.436;5.976;2023-12-07T00:28:28;50.63;49.33;52.28;;
71030;Laerm;63723;51.436;5.976;2023-12-07T00:28:38;50.58;49.14;56.77;;
71030;Laerm;63723;51.436;5.976;2023-12-07T00:28:48;50.50;49.51;51.83;;
71030;Laerm;63723;51.436;5.976;2023-12-07T00:28:58;50.75;49.58;57.62;;
71030;Laerm;63723;51.436;5.976;2023-12-07T00:29:09;51.07;49.95;52.13;;
71030;Laerm;63723;51.436;5.976;2023-12-07T00:29:19;50.31;49.00;51.89;;
71030;Laerm;63723;51.436;5.976;2023-12-07T00:29:29;50.17;48.99;51.33;;
71030;Laerm;63723;51.436;5.976;2023-12-07T00:29:40;50.22;49.12;51.70;;
71030;Laerm;63723;51.436;5.976;2023-12-07T00:29:50;50.23;48.93;56.72;;
71030;Laerm;63723;51.436;5.976;2023-12-07T00:30:00;50.22;49.08;51.50;;
71030;Laerm;63723;51.436;5.976;2023-12-07T00:30:11;50.21;49.10;51.40;;
71030;Laerm;63723;51.436;5.976;2023-12-07T00:30:21;50.23;49.01;52.16;;
71030;Laerm;63723;51.436;5.976;2023-12-07T00:30:32;50.13;49.05;51.32;;
71030;Laerm;63723;51.436;5.976;2023-12-07T00:30:43;50.22;48.92;51.70;;
71030;Laerm;63723;51.436;5.976;2023-12-07T00:30:54;50.19;49.19;51.21;;
71030;Laerm;63723;51.436;5.976;2023-12-07T00:31:04;50.24;49.03;51.55;;
71030;Laerm;63723;51.436;5.976;2023-12-07T00:31:14;50.17;49.17;51.43;;
71030;Laerm;63723;51.436;5.976;2023-12-07T00:31:24;50.15;48.92;51.44;;
71030;Laerm;63723;51.436;5.976;2023-12-07T00:31:35;50.15;48.82;51.29;;
71030;Laerm;63723;51.436;5.976;2023-12-07T00:31:45;50.21;49.25;51.71;;
71030;Laerm;63723;51.436;5.976;2023-12-07T00:31:55;50.26;49.25;51.70;;
71030;Laerm;63723;51.436;5.976;2023-12-07T00:32:05;50.17;48.99;51.50;;
71030;Laerm;63723;51.436;5.976;2023-12-07T00:32:16;50.24;48.87;51.86;;
71030;Laerm;63723;51.436;5.976;2023-12-07T00:32:27;50.14;49.01;51.46;;
71030;Laerm;63723;51.436;5.976;2023-12-07T00:32:37;50.15;49.02;51.65;;
71030;Laerm;63723;51.436;5.976;2023-12-07T00:32:48;50.17;49.07;51.99;;
71030;Laerm;63723;51.436;5.976;2023-12-07T00:32:58;50.28;49.26;51.83;;
71030;Laerm;63723;51.436;5.976;2023-12-07T00:33:09;50.16;48.91;51.27;;
71030;Laerm;63723;51.436;5.976;2023-12-07T00:33:19;50.20;49.20;51.06;;
71030;Laerm;63723;51.436;5.976;2023-12-07T00:33:31;50.24;49.04;51.81;;
71030;Laerm;63723;51.436;5.976;2023-12-07T00:33:42;50.20;48.93;51.72;;
71030;Laerm;63723;51.436;5.976;2023-12-07T00:33:52;50.25;49.12;51.31;;
71030;Laerm;63723;51.436;5.976;2023-12-07T00:34:02;50.26;49.20;51.86;;
71030;Laerm;63723;51.436;5.976;2023-12-07T00:34:13;50.26;48.94;51.55;;
71030;Laerm;63723;51.436;5.976;2023-12-07T00:34:23;50.21;49.11;51.30;;
71030;Laerm;63723;51.436;5.976;2023-12-07T00:34:33;50.23;48.86;51.31;;
71030;Laerm;63723;51.436;5.976;2023-12-07T00:34:43;50.17;49.23;51.15;;
71030;Laerm;63723;51.436;5.976;2023-12-07T00:34:53;50.29;48.94;51.59;;
71030;Laerm;63723;51.436;5.976;2023-12-07T00:35:04;50.21;49.29;51.51;;
71030;Laerm;63723;51.436;5.976;2023-12-07T00:35:14;50.21;48.61;51.59;;
71030;Laerm;63723;51.436;5.976;2023-12-07T00:35:26;50.27;49.24;51.50;;
71030;Laerm;63723;51.436;5.976;2023-12-07T00:35:38;50.26;49.03;52.07;;
71030;Laerm;63723;51.436;5.976;2023-12-07T00:35:49;50.22;49.01;51.46;;
71030;Laerm;63723;51.436;5.976;2023-12-07T00:35:59;50.25;49.09;51.43;;
71030;Laerm;63723;51.436;5.976;2023-12-07T00:36:10;50.20;49.10;51.65;;
71030;Laerm;63723;51.436;5.976;2023-12-07T00:36:20;50.22;49.19;52.09;;
71030;Laerm;63723;51.436;5.976;2023-12-07T00:36:30;50.21;49.28;51.70;;
71030;Laerm;63723;51.436;5.976;2023-12-07T00:36:40;50.15;48.96;51.23;;
71030;Laerm;63723;51.436;5.976;2023-12-07T00:36:51;50.16;48.95;51.43;;
71030;Laerm;63723;51.436;5.976;2023-12-07T00:37:01;50.12;49.09;51.41;;
71030;Laerm;63723;51.436;5.976;2023-12-07T00:37:13;50.16;48.98;51.31;;
71030;Laerm;63723;51.436;5.976;2023-12-07T00:37:24;50.21;48.83;51.36;;
71030;Laerm;63723;51.436;5.976;2023-12-07T00:37:34;50.18;48.97;52.20;;
71030;Laerm;63723;51.436;5.976;2023-12-07T00:37:44;50.12;49.11;51.25;;
71030;Laerm;63723;51.436;5.976;2023-12-07T00:37:55;50.27;49.08;51.41;;
71030;Laerm;63723;51.436;5.976;2023-12-07T00:38:06;50.17;48.88;51.33;;
71030;Laerm;63723;51.436;5.976;2023-12-07T00:38:18;50.14;48.92;51.19;;
71030;Laerm;63723;51.436;5.976;2023-12-07T00:38:28;50.16;49.15;51.45;;
71030;Laerm;63723;51.436;5.976;2023-12-07T00:38:39;50.16;48.85;51.26;;
71030;Laerm;63723;51.436;5.976;2023-12-07T00:38:49;50.21;49.06;51.46;;
71030;Laerm;63723;51.436;5.976;2023-12-07T00:38:59;50.22;48.84;51.66;;
71030;Laerm;63723;51.436;5.976;2023-12-07T00:39:10;50.21;49.04;51.44;;
71030;Laerm;63723;51.436;5.976;2023-12-07T00:39:21;50.16;49.04;51.22;;
71030;Laerm;63723;51.436;5.976;2023-12-07T00:39:31;50.19;49.01;51.92;;
71030;Laerm;63723;51.436;5.976;2023-12-07T00:39:41;50.19;49.28;51.15;;
71030;Laerm;63723;51.436;5.976;2023-12-07T00:39:51;50.25;48.90;51.61;;
71030;Laerm;63723;51.436;5.976;2023-12-07T00:40:02;50.17;49.23;51.66;;
71030;Laerm;63723;51.436;5.976;2023-12-07T00:40:12;50.21;49.06;51.43;;
71030;Laerm;63723;51.436;5.976;2023-12-07T00:40:23;50.21;49.20;51.30;;
71030;Laerm;63723;51.436;5.976;2023-12-07T00:40:33;50.21;49.02;51.50;;
71030;Laerm;63723;51.436;5.976;2023-12-07T00:40:47;50.22;48.95;51.66;;
71030;Laerm;63723;51.436;5.976;2023-12-07T00:40:57;50.16;49.22;51.24;;
71030;Laerm;63723;51.436;5.976;2023-12-07T00:41:07;50.15;49.10;51.51;;
71030;Laerm;63723;51.436;5.976;2023-12-07T00:41:17;50.19;48.87;51.08;;
71030;Laerm;63723;51.436;5.976;2023-12-07T00:41:28;50.21;49.02;51.65;;
71030;Laerm;63723;51.436;5.976;2023-12-07T00:41:38;50.16;49.04;51.45;;
71030;Laerm;63723;51.436;5.976;2023-12-07T00:41:48;50.30;49.25;51.47;;
71030;Laerm;63723;51.436;5.976;2023-12-07T00:41:58;50.27;49.21;51.60;;
71030;Laerm;63723;51.436;5.976;2023-12-07T00:42:09;50.24;49.05;51.38;;
71030;Laerm;63723;51.436;5.976;2023-12-07T00:42:19;50.25;49.19;51.92;;
71030;Laerm;63723;51.436;5.976;2023-12-07T00:42:29;50.26;48.94;52.25;;
71030;Laerm;63723;51.436;5.976;2023-12-07T00:42:40;50.28;49.14;51.51;;
71030;Laerm;63723;51.436;5.976;2023-12-07T00:42:50;50.27;48.99;52.07;;
71030;Laerm;63723;51.436;5.976;2023-12-07T00:43:00;50.18;49.01;51.27;;
71030;Laerm;63723;51.436;5.976;2023-12-07T00:43:11;50.26;48.99;51.50;;
71030;Laerm;63723;51.436;5.976;2023-12-07T00:43:22;50.24;48.93;51.49;;
71030;Laerm;63723;51.436;5.976;2023-12-07T00:43:32;50.19;49.07;51.33;;
71030;Laerm;63723;51.436;5.976;2023-12-07T00:43:42;50.16;49.13;51.20;;
71030;Laerm;63723;51.436;5.976;2023-12-07T00:43:52;50.13;49.14;51.56;;
71030;Laerm;63723;51.436;5.976;2023-12-07T00:44:03;50.17;48.94;51.25;;
71030;Laerm;63723;51.436;5.976;2023-12-07T00:44:13;50.16;48.75;51.57;;
71030;Laerm;63723;51.436;5.976;2023-12-07T00:44:24;50.16;49.19;51.60;;
71030;Laerm;63723;51.436;5.976;2023-12-07T00:44:38;50.15;48.87;51.85;;
71030;Laerm;63723;51.436;5.976;2023-12-07T00:44:49;50.16;48.88;51.61;;
71030;Laerm;63723;51.436;5.976;2023-12-07T00:44:59;50.20;49.12;51.51;;
71030;Laerm;63723;51.436;5.976;2023-12-07T00:45:11;50.16;48.78;51.51;;
71030;Laerm;63723;51.436;5.976;2023-12-07T00:45:21;50.14;48.76;51.44;;
71030;Laerm;63723;51.436;5.976;2023-12-07T00:45:32;50.18;49.02;51.23;;
71030;Laerm;63723;51.436;5.976;2023-12-07T00:45:42;50.10;48.97;51.07;;
71030;Laerm;63723;51.436;5.976;2023-12-07T00:45:52;50.07;48.94;51.39;;
71030;Laerm;63723;51.436;5.976;2023-12-07T00:46:02;50.15;49.05;51.63;;
71030;Laerm;63723;51.436;5.976;2023-12-07T00:46:13;50.10;49.00;51.43;;
71030;Laerm;63723;51.436;5.976;2023-12-07T00:46:23;50.06;48.72;51.73;;
71030;Laerm;63723;51.436;5.976;2023-12-07T00:46:33;50.09;49.10;51.76;;
71030;Laerm;63723;51.436;5.976;2023-12-07T00:46:43;50.12;48.80;51.26;;
71030;Laerm;63723;51.436;5.976;2023-12-07T00:46:54;50.12;49.05;51.22;;
71030;Laerm;63723;51.436;5.976;2023-12-07T00:47:04;50.14;49.00;51.28;;
71030;Laerm;63723;51.436;5.976;2023-12-07T00:47:15;50.16;48.96;51.63;;
71030;Laerm;63723;51.436;5.976;2023-12-07T00:47:25;50.17;49.17;51.56;;
71030;Laerm;63723;51.436;5.976;2023-12-07T00:47:35;50.13;48.84;51.05;;
71030;Laerm;63723;51.436;5.976;2023-12-07T00:47:45;50.12;48.93;51.35;;
71030;Laerm;63723;51.436;5.976;2023-12-07T00:47:55;50.11;48.95;51.92;;
71030;Laerm;63723;51.436;5.976;2023-12-07T00:48:06;50.09;48.87;51.26;;
71030;Laerm;63723;51.436;5.976;2023-12-07T00:48:16;50.15;49.06;51.67;;
71030;Laerm;63723;51.436;5.976;2023-12-07T00:48:27;50.09;49.18;51.77;;
71030;Laerm;63723;51.436;5.976;2023-12-07T00:48:37;50.14;48.66;51.20;;
71030;Laerm;63723;51.436;5.976;2023-12-07T00:48:47;50.15;49.02;51.24;;
71030;Laerm;63723;51.436;5.976;2023-12-07T00:48:57;50.10;49.01;51.90;;
71030;Laerm;63723;51.436;5.976;2023-12-07T00:49:08;50.17;48.99;51.26;;
71030;Laerm;63723;51.436;5.976;2023-12-07T00:49:18;50.19;48.82;51.97;;
71030;Laerm;63723;51.436;5.976;2023-12-07T00:49:28;50.18;48.94;55.42;;
71030;Laerm;63723;51.436;5.976;2023-12-07T00:49:38;50.17;49.11;51.53;;
71030;Laerm;63723;51.436;5.976;2023-12-07T00:49:51;50.18;48.63;51.41;;
71030;Laerm;63723;51.436;5.976;2023-12-07T00:50:02;50.22;49.06;51.45;;
71030;Laerm;63723;51.436;5.976;2023-12-07T00:50:12;50.21;49.14;51.49;;
71030;Laerm;63723;51.436;5.976;2023-12-07T00:50:24;50.27;49.15;52.65;;
71030;Laerm;63723;51.436;5.976;2023-12-07T00:50:34;50.21;49.24;51.25;;
71030;Laerm;63723;51.436;5.976;2023-12-07T00:50:45;50.19;48.97;52.29;;
71030;Laerm;63723;51.436;5.976;2023-12-07T00:50:55;50.00;49.06;50.93;;
71030;Laerm;63723;51.436;5.976;2023-12-07T00:51:05;50.02;48.97;50.99;;
71030;Laerm;63723;51.436;5.976;2023-12-07T00:51:19;50.03;49.07;51.29;;
71030;Laerm;63723;51.436;5.976;2023-12-07T00:51:29;50.03;48.65;51.22;;
71030;Laerm;63723;51.436;5.976;2023-12-07T00:51:39;50.03;48.76;51.26;;
71030;Laerm;63723;51.436;5.976;2023-12-07T00:51:49;50.00;48.94;51.25;;
71030;Laerm;63723;51.436;5.976;2023-12-07T00:51:59;50.04;48.83;51.10;;
71030;Laerm;63723;51.436;5.976;2023-12-07T00:52:10;50.04;49.02;51.37;;
71030;Laerm;63723;51.436;5.976;2023-12-07T00:52:20;50.06;48.81;51.12;;
71030;Laerm;63723;51.436;5.976;2023-12-07T00:52:30;50.07;48.80;51.14;;
71030;Laerm;63723;51.436;5.976;2023-12-07T00:52:40;50.10;49.05;51.58;;
71030;Laerm;63723;51.436;5.976;2023-12-07T00:52:51;50.06;48.92;51.22;;
71030;Laerm;63723;51.436;5.976;2023-12-07T00:53:01;50.05;48.93;51.41;;
71030;Laerm;63723;51.436;5.976;2023-12-07T00:53:11;50.05;49.04;51.16;;
71030;Laerm;63723;51.436;5.976;2023-12-07T00:53:22;50.01;49.09;51.09;;
71030;Laerm;63723;51.436;5.976;2023-12-07T00:53:32;49.93;48.82;51.07;;
71030;Laerm;63723;51.436;5.976;2023-12-07T00:53:42;49.96;48.79;51.23;;
71030;Laerm;63723;51.436;5.976;2023-12-07T00:53:53;49.86;48.45;51.04;;
71030;Laerm;63723;51.436;5.976;2023-12-07T00:54:03;49.89;48.87;51.16;;
71030;Laerm;63723;51.436;5.976;2023-12-07T00:54:13;49.98;48.67;51.23;;
71030;Laerm;63723;51.436;5.976;2023-12-07T00:54:23;49.93;48.87;50.94;;
71030;Laerm;63723;51.436;5.976;2023-12-07T00:54:34;49.94;48.74;51.27;;
71030;Laerm;63723;51.436;5.976;2023-12-07T00:54:44;49.93;48.74;51.05;;
71030;Laerm;63723;51.436;5.976;2023-12-07T00:54:54;49.91;48.63;51.22;;
71030;Laerm;63723;51.436;5.976;2023-12-07T00:55:04;49.96;48.81;51.10;;
71030;Laerm;63723;51.436;5.976;2023-12-07T00:55:15;49.93;48.63;50.98;;
71030;Laerm;63723;51.436;5.976;2023-12-07T00:55:26;49.92;48.81;50.89;;
71030;Laerm;63723;51.436;5.976;2023-12-07T00:55:36;49.78;48.66;50.81;;
71030;Laerm;63723;51.436;5.976;2023-12-07T00:55:46;49.76;48.69;51.28;;
71030;Laerm;63723;51.436;5.976;2023-12-07T00:55:56;49.75;48.81;51.18;;
71030;Laerm;63723;51.436;5.976;2023-12-07T00:56:07;49.75;48.54;51.03;;
71030;Laerm;63723;51.436;5.976;2023-12-07T00:56:17;49.81;48.67;50.80;;
71030;Laerm;63723;51.436;5.976;2023-12-07T00:56:27;49.76;48.61;50.75;;
71030;Laerm;63723;51.436;5.976;2023-12-07T00:56:37;49.77;48.68;50.77;;
71030;Laerm;63723;51.436;5.976;2023-12-07T00:56:48;49.85;48.51;51.30;;
71030;Laerm;63723;51.436;5.976;2023-12-07T00:56:58;49.82;48.48;55.58;;
71030;Laerm;63723;51.436;5.976;2023-12-07T00:57:08;49.80;48.83;51.14;;
71030;Laerm;63723;51.436;5.976;2023-12-07T00:57:18;49.91;48.90;52.48;;
71030;Laerm;63723;51.436;5.976;2023-12-07T00:57:28;49.88;48.70;50.80;;
71030;Laerm;63723;51.436;5.976;2023-12-07T00:57:39;49.77;48.55;51.47;;
71030;Laerm;63723;51.436;5.976;2023-12-07T00:57:50;49.74;48.58;51.56;;
71030;Laerm;63723;51.436;5.976;2023-12-07T00:58:00;49.71;48.49;50.87;;
71030;Laerm;63723;51.436;5.976;2023-12-07T00:58:11;49.67;48.51;50.78;;
71030;Laerm;63723;51.436;5.976;2023-12-07T00:58:21;49.81;48.54;51.47;;